Time;durP1;ratioP1;P1;durP2;ratioP2;P2;SDS_P1;SDS_P2;PMS_P1;PMS_P2;Temp;Humidity;BMP_temperature;BMP_pressure;BME280_temperature;BME280_humidity;BME280_pressure;Samples;Min_cycle;Max_cycle;Signal;HPM_P1;HPM_P2
2022/09/29 00:01:07;;;;;;;2.33;0.98;;;;;;;22.01;43.52;97875.81;5054645;28;20064;-73
2022/09/29 00:03:32;;;;;;;7.90;1.00;;;;;;;22.03;43.64;97881.72;5071183;28;20384;-73
2022/09/29 00:05:58;;;;;;;6.55;0.98;;;;;;;22.02;44.20;97880.06;5054391;28;20032;-73
2022/09/29 00:08:25;;;;;;;1.67;0.90;;;;;;;21.99;44.13;97882.34;5054604;28;20091;-73
2022/09/29 00:10:51;;;;;;;2.53;0.90;;;;;;;21.92;44.02;97877.06;5037735;28;20044;-74
2022/09/29 00:13:16;;;;;;;2.88;1.13;;;;;;;21.97;43.97;97882.56;5070850;28;20267;-74
2022/09/29 00:15:42;;;;;;;5.25;1.17;;;;;;;21.97;44.17;97884.41;5037440;28;20055;-73
2022/09/29 00:18:08;;;;;;;2.50;0.85;;;;;;;21.97;43.76;97887.06;5037778;28;20098;-73
2022/09/29 00:20:34;;;;;;;2.03;1.02;;;;;;;21.96;43.94;97882.75;5054248;28;20495;-73
2022/09/29 00:22:59;;;;;;;3.28;1.05;;;;;;;21.92;44.10;97870.91;5073354;28;20025;-73
2022/09/29 00:25:25;;;;;;;2.40;0.90;;;;;;;21.94;43.91;97877.66;5043942;28;20036;-74
2022/09/29 00:27:50;;;;;;;3.42;1.00;;;;;;;21.94;44.13;97887.47;5077247;28;20028;-73
2022/09/29 00:30:16;;;;;;;4.50;1.02;;;;;;;21.92;44.20;97886.84;5044234;28;20472;-73
2022/09/29 00:32:42;;;;;;;3.20;0.90;;;;;;;21.86;44.02;97873.41;5060597;28;20560;-73
2022/09/29 00:35:08;;;;;;;2.78;1.17;;;;;;;21.89;44.00;97896.09;5060764;28;20434;-73
2022/09/29 00:37:34;;;;;;;2.75;1.10;;;;;;;21.85;44.16;97889.53;5061099;28;20035;-73
2022/09/29 00:40:00;;;;;;;2.35;1.02;;;;;;;21.83;44.06;97880.97;5077460;28;20029;-73
2022/09/29 00:42:26;;;;;;;3.95;0.90;;;;;;;21.79;44.29;97888.56;5060607;28;20103;-74
2022/09/29 00:45:13;;;;;;;5.05;1.00;;;;;;;21.79;44.13;97883.25;5077281;28;20032;-73
2022/09/29 00:47:39;;;;;;;3.00;1.15;;;;;;;21.74;44.19;97885.69;5045651;28;20024;-74
2022/09/29 00:50:21;;;;;;;2.80;0.93;;;;;;;21.73;44.38;97884.09;5060825;28;20411;-74
2022/09/29 00:52:50;;;;;;;2.08;1.00;;;;;;;21.72;43.91;97877.13;5044020;28;20029;-74
2022/09/29 00:55:16;;;;;;;4.90;1.00;;;;;;;21.77;44.03;97879.97;5044149;28;20032;-74
2022/09/29 00:57:58;;;;;;;5.93;1.08;;;;;;;21.74;44.12;97877.72;5077484;28;20031;-74
2022/09/29 01:00:24;;;;;;;3.25;1.10;;;;;;;21.78;44.17;97872.84;5061087;28;20033;-74
2022/09/29 01:03:01;;;;;;;2.13;1.20;;;;;;;21.80;43.91;97882.19;5060365;28;20024;-74
2022/09/29 01:05:31;;;;;;;1.57;0.87;;;;;;;21.77;43.81;97876.50;5044140;28;20028;-74
2022/09/29 01:07:57;;;;;;;2.17;1.10;;;;;;;21.82;44.00;97887.31;5044799;28;20525;-74
2022/09/29 01:10:23;;;;;;;4.10;1.20;;;;;;;21.81;44.11;97886.50;5060483;28;20496;-73
2022/09/29 01:12:48;;;;;;;6.80;1.33;;;;;;;21.78;44.14;97880.81;5077078;28;20067;-74
2022/09/29 01:15:16;;;;;;;2.40;0.90;;;;;;;21.79;44.17;97877.94;5078098;28;20051;-73
2022/09/29 01:17:41;;;;;;;3.35;1.10;;;;;;;21.79;44.17;97874.44;5060273;28;20074;-74
2022/09/29 01:20:21;;;;;;;3.05;1.00;;;;;;;21.76;44.36;97873.03;5060915;28;20032;-74
2022/09/29 01:23:05;;;;;;;1.92;1.10;;;;;;;21.75;44.54;97875.91;5045427;28;20024;-74
2022/09/29 01:25:47;;;;;;;2.40;0.80;;;;;;;21.71;44.43;97872.03;5078286;28;20060;-74
2022/09/29 01:28:33;;;;;;;2.22;1.00;;;;;;;21.64;44.67;97870.22;5076965;28;20084;-74
2022/09/29 01:30:59;;;;;;;2.80;1.00;;;;;;;21.66;44.66;97877.97;5078743;28;20063;-74
2022/09/29 01:33:36;;;;;;;1.80;0.93;;;;;;;21.65;44.83;97876.34;5078139;28;20032;-73
2022/09/29 01:36:17;;;;;;;2.63;1.00;;;;;;;21.63;44.43;97867.75;5074106;28;20502;-73
2022/09/29 01:38:52;;;;;;;3.03;1.00;;;;;;;21.61;44.69;97867.97;5058630;28;20310;-74
2022/09/29 01:41:55;;;;;;;2.45;0.93;;;;;;;21.62;44.94;97872.25;5073917;28;20373;-73
2022/09/29 01:44:28;;;;;;;1.85;1.00;;;;;;;21.59;44.51;97858.59;5055719;28;20162;-74
2022/09/29 01:46:56;;;;;;;15.75;1.33;;;;;;;21.62;44.75;97855.53;5056334;28;20115;-74
2022/09/29 01:49:22;;;;;;;;;;;;;;;21.62;44.80;97858.19;5056074;28;20095;-74
2022/09/29 01:52:03;;;;;;;2.58;1.10;;;;;;;21.58;44.84;97851.66;5039076;28;19936;-74
2022/09/29 01:54:53;;;;;;;2.75;1.13;;;;;;;21.50;44.73;97839.41;5039696;28;20024;-74
2022/09/29 01:57:49;;;;;;;2.15;1.00;;;;;;;21.55;44.82;97846.75;5058211;28;20036;-74
2022/09/29 02:00:18;;;;;;;3.40;0.98;;;;;;;21.51;44.97;97851.69;5050809;28;20032;-74
2022/09/29 02:02:55;;;;;;;5.03;1.20;;;;;;;21.50;45.09;97853.50;5055654;28;20024;-74
2022/09/29 02:05:21;;;;;;;2.77;1.23;;;;;;;21.45;44.86;97844.50;5057103;28;20044;-75
2022/09/29 02:07:47;;;;;;;1.75;1.00;;;;;;;21.45;45.18;97847.97;5038367;28;20729;-74
2022/09/29 02:10:21;;;;;;;2.67;1.00;;;;;;;21.41;45.10;97836.16;5055618;28;20032;-74
2022/09/29 02:12:46;;;;;;;3.40;1.10;;;;;;;21.43;45.26;97846.56;5055377;28;20564;-74
2022/09/29 02:15:15;;;;;;;4.07;1.00;;;;;;;21.41;45.37;97846.78;5038929;28;20044;-74
2022/09/29 02:17:42;;;;;;;2.90;0.85;;;;;;;21.38;45.48;97835.75;5050965;28;20117;-74
2022/09/29 02:20:09;;;;;;;3.50;1.10;;;;;;;21.40;45.24;97839.03;5020306;28;20041;-74
2022/09/29 02:22:35;;;;;;;3.50;1.00;;;;;;;21.41;45.28;97848.59;5020178;28;20063;-74
2022/09/29 02:25:00;;;;;;;1.60;0.90;;;;;;;21.37;45.26;97842.09;5036505;28;20493;-74
2022/09/29 02:27:32;;;;;;;1.95;1.02;;;;;;;21.37;45.17;97852.72;5052933;28;20060;-74
2022/09/29 02:29:58;;;;;;;3.45;1.20;;;;;;;21.38;45.36;97863.13;5021217;28;20064;-74
2022/09/29 02:32:23;;;;;;;2.90;1.05;;;;;;;21.37;45.45;97868.63;5036125;28;20052;-74
2022/09/29 02:34:49;;;;;;;2.42;1.00;;;;;;;21.42;45.41;97879.44;5035992;28;20033;-74
2022/09/29 02:37:33;;;;;;;2.00;1.10;;;;;;;21.41;45.52;97889.25;5036003;28;20476;-74
2022/09/29 02:40:14;;;;;;;3.33;1.40;;;;;;;21.39;45.67;97896.59;5054085;28;20028;-73
2022/09/29 02:42:48;;;;;;;4.47;1.27;;;;;;;21.35;45.56;97892.72;5053562;28;20491;-74
2022/09/29 02:45:27;;;;;;;5.07;1.20;;;;;;;21.33;45.47;97886.78;5036201;28;20028;-74
2022/09/29 02:48:04;;;;;;;3.20;1.42;;;;;;;21.35;45.46;97894.56;5034918;28;20044;-74
2022/09/29 02:50:44;;;;;;;2.20;1.20;;;;;;;21.32;46.02;97899.25;5052305;28;20118;-73
2022/09/29 02:53:46;;;;;;;6.68;1.15;;;;;;;21.31;45.75;97897.63;5053498;28;20029;-75
2022/09/29 02:56:30;;;;;;;3.97;1.30;;;;;;;21.28;45.65;97899.88;5052297;28;20151;-74
2022/09/29 02:59:01;;;;;;;1.75;1.02;;;;;;;21.25;45.90;97892.31;5053336;28;20104;-74
2022/09/29 03:01:30;;;;;;;3.78;1.13;;;;;;;21.23;45.77;97891.72;5019563;28;20099;-76
2022/09/29 03:03:55;;;;;;;4.72;1.30;;;;;;;21.26;45.89;97896.63;5035592;28;20515;-75
2022/09/29 03:06:21;;;;;;;6.75;1.30;;;;;;;21.25;45.71;97895.81;5018845;28;20025;-74
2022/09/29 03:08:47;;;;;;;4.57;1.30;;;;;;;21.24;45.71;97893.38;5019046;28;20025;-74
2022/09/29 03:11:12;;;;;;;3.63;1.20;;;;;;;21.25;45.90;97887.00;5052167;28;20056;-74
2022/09/29 03:13:38;;;;;;;4.63;1.30;;;;;;;21.26;45.69;97897.44;5018892;28;20041;-74
2022/09/29 03:16:03;;;;;;;3.67;1.25;;;;;;;21.29;45.86;97906.81;5024642;28;20044;-73
2022/09/29 03:18:29;;;;;;;3.45;1.20;;;;;;;21.28;45.71;97906.00;5061911;28;20401;-73
2022/09/29 03:20:54;;;;;;;3.33;1.20;;;;;;;21.26;45.83;97910.69;5051803;28;20483;-73
2022/09/29 03:23:20;;;;;;;4.03;1.42;;;;;;;21.22;45.72;97912.16;5034928;28;20067;-73
2022/09/29 03:25:45;;;;;;;5.60;1.52;;;;;;;21.26;45.68;97917.84;5035268;28;20063;-73
2022/09/29 03:28:11;;;;;;;2.65;1.15;;;;;;;21.21;46.05;97915.81;5051236;28;20091;-73
2022/09/29 03:30:36;;;;;;;4.00;1.13;;;;;;;21.23;45.81;97931.53;5018756;28;20057;-74
2022/09/29 03:33:02;;;;;;;4.53;1.40;;;;;;;21.20;45.95;97935.41;5051641;28;20044;-75
2022/09/29 03:35:27;;;;;;;5.88;1.10;;;;;;;21.18;45.78;97934.00;5051228;28;20064;-74
2022/09/29 03:37:58;;;;;;;3.25;1.27;;;;;;;21.18;45.89;97941.97;5051586;28;20454;-74
2022/09/29 03:40:23;;;;;;;2.25;1.10;;;;;;;21.13;45.88;97939.91;5018901;28;20029;-73
2022/09/29 03:42:49;;;;;;;1.98;1.08;;;;;;;21.13;45.82;97934.59;5051500;28;20158;-75
2022/09/29 03:45:14;;;;;;;2.03;1.10;;;;;;;21.13;45.91;97943.38;5018258;28;20036;-75
2022/09/29 03:47:40;;;;;;;2.45;1.30;;;;;;;21.09;45.80;97922.75;5034411;28;20380;-75
2022/09/29 03:50:06;;;;;;;2.70;1.20;;;;;;;21.09;45.92;97917.44;5034485;28;20111;-75
2022/09/29 03:52:31;;;;;;;2.97;1.10;;;;;;;21.11;45.99;97918.06;5051178;28;20113;-75
2022/09/29 03:54:57;;;;;;;2.92;1.20;;;;;;;21.14;45.69;97917.66;5051253;28;20425;-75
2022/09/29 03:57:22;;;;;;;3.92;1.17;;;;;;;21.17;46.01;97921.75;5064464;28;20032;-75
2022/09/29 03:59:48;;;;;;;2.10;1.00;;;;;;;21.14;45.84;97922.94;5054419;28;20048;-75
2022/09/29 04:02:17;;;;;;;3.92;1.10;;;;;;;21.17;45.80;97935.00;5070704;28;20082;-75
2022/09/29 04:04:43;;;;;;;2.78;1.23;;;;;;;21.20;45.67;97929.28;5055105;28;20044;-75
2022/09/29 04:07:08;;;;;;;2.00;0.88;;;;;;;21.22;45.71;97927.22;5071137;28;20032;-75
2022/09/29 04:09:34;;;;;;;2.72;1.20;;;;;;;21.19;45.69;97920.53;5037596;28;20074;-75
2022/09/29 04:11:59;;;;;;;3.42;1.20;;;;;;;21.14;45.63;97901.72;5037680;28;20028;-74
2022/09/29 04:14:25;;;;;;;3.63;1.17;;;;;;;21.20;45.84;97908.88;5054268;28;20036;-78
2022/09/29 04:16:50;;;;;;;2.10;1.00;;;;;;;21.28;45.69;97910.50;5053912;28;20044;-75
2022/09/29 04:19:16;;;;;;;4.32;1.15;;;;;;;21.33;45.22;97900.06;5070929;28;20025;-77
2022/09/29 04:21:41;;;;;;;2.13;1.05;;;;;;;21.53;44.95;97910.69;5071040;28;20032;-75
2022/09/29 04:24:07;;;;;;;4.05;1.35;;;;;;;21.72;44.55;97909.00;5070773;28;20029;-74
2022/09/29 04:26:32;;;;;;;1.98;1.00;;;;;;;21.83;44.14;97921.63;5071100;28;20491;-74
2022/09/29 04:28:58;;;;;;;4.20;1.10;;;;;;;21.79;44.40;97915.13;5071763;28;20075;-74
2022/09/29 04:31:23;;;;;;;4.00;1.13;;;;;;;21.71;44.50;97918.00;5052754;28;20033;-75
2022/09/29 04:33:49;;;;;;;3.38;1.10;;;;;;;21.65;44.47;97927.63;5034476;28;20052;-74
2022/09/29 04:36:14;;;;;;;2.53;1.13;;;;;;;21.66;44.66;97925.78;5034030;28;20112;-75
2022/09/29 04:38:40;;;;;;;4.30;1.05;;;;;;;21.67;44.69;97930.06;5034243;28;20025;-76
2022/09/29 04:41:05;;;;;;;3.17;1.40;;;;;;;21.70;44.60;97929.66;5034216;28;20029;-74
2022/09/29 04:43:31;;;;;;;4.78;1.20;;;;;;;22.05;43.72;97930.13;5050112;28;20102;-75
2022/09/29 04:46:04;;;;;;;4.63;1.10;;;;;;;22.03;43.88;97931.41;5050760;28;20056;-74
2022/09/29 04:48:29;;;;;;;1.58;0.93;;;;;;;22.03;43.94;97934.84;5018021;28;20032;-75
2022/09/29 04:50:55;;;;;;;3.25;1.15;;;;;;;22.03;44.14;97926.06;5034170;28;20471;-75
2022/09/29 04:53:20;;;;;;;3.08;1.40;;;;;;;22.05;44.06;97934.66;5050160;28;20029;-79
2022/09/29 04:55:46;;;;;;;3.42;1.40;;;;;;;22.37;43.39;97934.72;5040228;28;20064;-76
2022/09/29 04:58:11;;;;;;;3.60;1.75;;;;;;;23.49;40.92;97936.81;5060680;28;20408;-76
2022/09/29 05:00:37;;;;;;;4.70;2.00;;;;;;;24.37;38.95;97934.81;5039657;28;20067;-75
2022/09/29 05:03:02;;;;;;;5.30;2.00;;;;;;;25.05;38.29;97932.81;5017484;28;20481;-78
2022/09/29 05:05:28;;;;;;;4.57;1.63;;;;;;;24.85;38.45;97938.47;5035327;28;20392;-76
2022/09/29 05:07:53;;;;;;;3.92;1.80;;;;;;;25.10;37.74;97925.72;5053984;28;20040;-75
2022/09/29 05:10:19;;;;;;;7.95;2.10;;;;;;;25.79;36.49;97941.19;5072260;28;20503;-76
2022/09/29 05:12:49;;;;;;;10.05;2.20;;;;;;;26.70;34.75;97939.78;5057966;28;20028;-74
2022/09/29 05:15:15;;;;;;;3.03;1.85;;;;;;;26.32;35.34;97939.31;5057123;28;20511;-76
2022/09/29 05:17:40;;;;;;;5.25;1.90;;;;;;;26.10;35.92;97947.19;5057944;28;20488;-75
2022/09/29 05:20:06;;;;;;;14.70;1.75;;;;;;;26.03;36.96;97949.19;5052766;28;20025;-79
2022/09/29 05:22:32;;;;;;;13.65;1.90;;;;;;;26.71;36.27;97952.91;5026438;28;20131;-76
2022/09/29 05:24:57;;;;;;;8.57;4.20;;;;;;;27.23;35.22;97969.81;5047945;28;20025;-77
2022/09/29 05:27:23;;;;;;;12.40;4.90;;;;;;;27.12;35.12;97954.66;5034573;28;20032;-82
2022/09/29 05:29:48;;;;;;;12.55;6.10;;;;;;;26.36;36.48;97961.06;5030132;28;20412;-81
2022/09/29 05:32:14;;;;;;;9.88;5.65;;;;;;;26.31;36.80;97952.94;5048420;28;20040;-78
2022/09/29 05:34:39;;;;;;;11.75;5.72;;;;;;;27.15;35.43;97956.84;5050934;28;20467;-78
2022/09/29 05:37:05;;;;;;;8.65;4.93;;;;;;;27.82;35.22;97953.28;5031831;28;20041;-78
2022/09/29 05:39:33;;;;;;;9.98;3.67;;;;;;;28.34;33.50;97955.56;5042525;28;20025;-76
2022/09/29 05:42:01;;;;;;;8.95;4.30;;;;;;;28.77;32.89;97949.56;5065901;28;20043;-82
2022/09/29 05:44:26;;;;;;;15.57;3.90;;;;;;;29.11;32.03;97943.94;5034866;28;20071;-80
2022/09/29 05:46:52;;;;;;;9.90;3.75;;;;;;;29.39;31.60;97946.31;5065707;28;20543;-83
2022/09/29 05:49:18;;;;;;;14.23;3.00;;;;;;;29.71;31.72;97950.00;5033089;28;20095;-80
2022/09/29 05:51:43;;;;;;;8.60;2.72;;;;;;;30.00;30.90;97952.31;5049776;28;20458;-76
2022/09/29 05:54:09;;;;;;;9.45;2.53;;;;;;;30.23;29.63;97957.25;5047265;28;20119;-79
2022/09/29 05:56:34;;;;;;;4.95;1.70;;;;;;;30.40;28.54;97942.81;5029143;28;20029;-82
2022/09/29 05:59:00;;;;;;;7.13;1.90;;;;;;;30.52;28.66;97945.25;5046643;28;20031;-78
2022/09/29 06:01:26;;;;;;;8.05;2.30;;;;;;;30.75;29.77;97946.63;5035393;28;20060;-85
2022/09/29 06:03:55;;;;;;;5.70;1.75;;;;;;;30.97;29.24;97949.91;5054853;28;20040;-81
2022/09/29 06:06:24;;;;;;;4.65;1.60;;;;;;;31.11;28.24;97944.78;5046277;28;20029;-69
2022/09/29 06:08:50;;;;;;;6.45;1.77;;;;;;;31.23;28.25;97936.41;5044049;28;20082;-71
2022/09/29 06:11:17;;;;;;;7.80;1.85;;;;;;;31.45;28.09;97940.69;5029976;28;20029;-78
2022/09/29 06:13:46;;;;;;;3.88;1.52;;;;;;;31.63;28.21;97940.16;5036701;28;20029;-80
2022/09/29 06:16:11;;;;;;;4.63;1.50;;;;;;;31.71;27.37;97927.97;5054503;28;20040;-83
2022/09/29 06:18:38;;;;;;;6.10;1.38;;;;;;;31.86;27.58;97927.09;5030088;28;20021;-82
2022/09/29 06:21:08;;;;;;;5.30;1.63;;;;;;;32.06;27.00;97932.41;5029888;28;20052;-77
2022/09/29 06:23:33;;;;;;;5.05;1.52;;;;;;;32.21;26.79;97947.78;5030521;28;20048;-80
2022/09/29 06:26:00;;;;;;;8.25;1.80;;;;;;;32.23;26.44;97948.31;5033546;28;20041;-78
2022/09/29 06:28:27;;;;;;;10.77;1.70;;;;;;;32.22;26.27;97956.69;5053124;28;20021;-79
2022/09/29 06:30:59;;;;;;;6.35;1.23;;;;;;;32.49;25.21;97963.56;5045558;28;20114;-72
2022/09/29 06:33:28;;;;;;;7.97;1.20;;;;;;;32.53;25.80;97956.50;5024514;28;20028;-70
2022/09/29 06:38:38;;;;;;;4.95;1.48;;;;;;;32.74;25.81;97954.53;5044876;28;20063;-79
2022/09/29 06:41:04;;;;;;;7.90;1.77;;;;;;;32.79;25.89;97954.47;5045640;28;20033;-81
2022/09/29 06:43:29;;;;;;;7.88;1.67;;;;;;;32.86;26.27;97951.44;5045831;28;20017;-85
2022/09/29 06:45:55;;;;;;;5.43;1.55;;;;;;;33.09;25.60;97944.50;5048769;28;20040;-81
2022/09/29 06:48:20;;;;;;;6.78;1.52;;;;;;;33.21;25.53;97941.44;5029622;28;20554;-85
2022/09/29 06:50:47;;;;;;;7.82;1.52;;;;;;;33.38;25.10;97951.84;5029635;28;20083;-81
2022/09/29 06:53:13;;;;;;;4.82;1.33;;;;;;;33.44;24.92;97948.78;5059965;28;20017;-84
2022/09/29 06:55:39;;;;;;;5.32;1.35;;;;;;;33.60;24.54;97945.94;5042427;28;20452;-76
2022/09/29 06:58:04;;;;;;;8.10;1.27;;;;;;;33.68;24.81;97935.31;5045764;28;20060;-80
2022/09/29 07:00:30;;;;;;;6.22;1.52;;;;;;;33.85;24.32;97950.28;5043492;28;20085;-76
2022/09/29 07:02:55;;;;;;;4.70;1.30;;;;;;;34.08;24.39;97954.88;5043924;28;20044;-76
2022/09/29 07:05:21;;;;;;;6.95;1.90;;;;;;;34.14;24.53;97960.22;5029901;28;20033;-75
2022/09/29 07:07:49;;;;;;;5.93;1.70;;;;;;;34.17;24.02;97949.59;5045140;28;20032;-76
2022/09/29 07:10:15;;;;;;;4.15;1.55;;;;;;;34.32;24.00;97954.06;5029395;28;20071;-80
2022/09/29 07:12:45;;;;;;;4.88;1.42;;;;;;;34.32;24.34;97954.06;5060281;28;20020;-77
2022/09/29 07:15:12;;;;;;;5.93;1.42;;;;;;;34.50;24.00;97962.47;5048758;28;20504;-77
2022/09/29 07:17:37;;;;;;;5.53;1.15;;;;;;;34.72;23.99;97964.59;5037343;28;20020;-78
2022/09/29 07:20:03;;;;;;;4.07;1.23;;;;;;;34.92;23.53;97971.66;5051099;28;20033;-84
2022/09/29 07:22:29;;;;;;;4.78;1.50;;;;;;;35.08;23.56;97975.72;5036551;28;20492;-77
2022/09/29 07:24:54;;;;;;;4.70;1.65;;;;;;;35.77;22.51;97977.81;5044477;28;20082;-77
2022/09/29 07:27:23;;;;;;;3.50;1.60;;;;;;;36.30;22.13;97975.69;5029709;28;20032;-79
2022/09/29 07:29:52;;;;;;;6.20;1.33;;;;;;;36.17;22.09;97974.56;5058505;28;20043;-78
2022/09/29 07:32:18;;;;;;;6.68;1.95;;;;;;;36.42;21.41;97967.81;5026957;28;20021;-79
2022/09/29 07:34:43;;;;;;;7.63;1.77;;;;;;;36.29;22.45;97969.44;5027010;28;20048;-77
2022/09/29 07:37:09;;;;;;;8.77;1.50;;;;;;;36.14;21.80;97970.53;5030651;28;20033;-81
2022/09/29 07:39:35;;;;;;;7.30;1.67;;;;;;;35.80;22.69;97968.25;5042602;28;20041;-81
2022/09/29 07:42:02;;;;;;;6.30;1.80;;;;;;;35.51;22.85;97966.59;5043504;28;20045;-72
2022/09/29 07:44:31;;;;;;;5.65;1.35;;;;;;;35.42;22.44;97963.75;5041927;28;20056;-72
2022/09/29 07:46:57;;;;;;;5.85;1.60;;;;;;;35.10;22.96;97965.34;5041201;28;20052;-76
2022/09/29 07:49:22;;;;;;;5.80;1.48;;;;;;;34.89;24.29;97964.09;5049428;28;20067;-71
2022/09/29 07:51:48;;;;;;;11.52;1.50;;;;;;;35.06;23.81;97967.06;5058503;28;20388;-77
2022/09/29 07:54:13;;;;;;;4.93;1.33;;;;;;;35.15;23.63;97973.44;5059058;28;20087;-76
2022/09/29 07:56:39;;;;;;;3.92;1.40;;;;;;;35.18;22.70;97972.00;5028691;28;20032;-80
2022/09/29 07:59:05;;;;;;;4.03;1.40;;;;;;;35.42;23.07;97980.03;5059536;28;20035;-79
2022/09/29 08:01:31;;;;;;;12.23;1.90;;;;;;;35.56;22.76;97985.47;5027882;28;20025;-75
2022/09/29 08:03:56;;;;;;;4.47;2.00;;;;;;;35.55;23.16;97983.06;5025404;28;20029;-79
2022/09/29 08:06:22;;;;;;;7.13;1.83;;;;;;;35.60;22.98;97983.78;5026273;28;20511;-71
2022/09/29 08:08:49;;;;;;;5.22;1.88;;;;;;;35.62;22.69;97975.34;5043182;28;20029;-69
2022/09/29 08:11:16;;;;;;;6.88;1.85;;;;;;;35.72;22.59;97982.50;5041593;28;20032;-70
2022/09/29 08:13:41;;;;;;;11.05;2.20;;;;;;;35.69;22.87;97983.88;5026037;28;20466;-74
2022/09/29 08:16:09;;;;;;;7.93;1.85;;;;;;;35.84;23.10;97993.69;5043381;28;20049;-74
2022/09/29 08:18:35;;;;;;;9.27;2.25;;;;;;;35.84;22.77;97991.78;5030380;28;20495;-76
2022/09/29 08:21:01;;;;;;;8.43;1.80;;;;;;;35.84;22.43;97985.56;5048571;28;20036;-75
2022/09/29 08:23:27;;;;;;;7.47;1.70;;;;;;;35.93;22.48;97985.63;5046656;28;20017;-72
2022/09/29 08:26:08;;;;;;;13.68;2.10;;;;;;;35.89;22.77;98004.44;5057571;28;20490;-75
2022/09/29 08:28:34;;;;;;;31.27;6.93;;;;;;;35.73;23.58;98006.63;5037690;28;20032;-77
2022/09/29 08:31:07;;;;;;;12.45;2.15;;;;;;;35.67;22.83;98005.09;5044646;28;20016;-78
2022/09/29 08:33:33;;;;;;;3.90;1.85;;;;;;;35.58;22.93;98001.47;5026513;28;20028;-71
2022/09/29 08:35:59;;;;;;;5.95;1.88;;;;;;;35.54;23.32;98003.19;5048089;28;20040;-71
2022/09/29 08:38:25;;;;;;;10.88;1.95;;;;;;;35.67;22.95;98000.47;5043238;28;20733;-72
2022/09/29 08:40:50;;;;;;;7.35;1.85;;;;;;;35.86;23.09;98007.75;5057806;28;20025;-76
2022/09/29 08:43:25;;;;;;;5.20;2.15;;;;;;;35.81;22.76;97995.09;5043945;28;20117;-75
2022/09/29 08:46:22;;;;;;;9.25;2.25;;;;;;;35.71;22.84;98008.03;5062837;28;20455;-73
2022/09/29 08:48:49;;;;;;;25.92;3.30;;;;;;;35.71;23.19;98002.59;5062473;28;20040;-81
2022/09/29 08:51:28;;;;;;;15.38;2.33;;;;;;;35.73;23.15;98003.91;5054987;28;20478;-76
2022/09/29 08:53:54;;;;;;;4.93;1.77;;;;;;;35.49;22.22;98002.16;5036583;28;20084;-78
2022/09/29 08:56:20;;;;;;;8.05;2.00;;;;;;;35.41;22.83;98012.88;5037610;28;20057;-83
2022/09/29 08:58:45;;;;;;;9.15;2.15;;;;;;;35.46;23.02;98015.53;5047695;28;20100;-78
2022/09/29 09:01:21;;;;;;;8.40;2.10;;;;;;;35.41;22.51;98008.28;5029721;28;20504;-79
2022/09/29 09:04:15;;;;;;;5.53;1.95;;;;;;;35.34;23.18;98005.13;5029994;28;20450;-80
2022/09/29 09:06:53;;;;;;;6.30;2.08;;;;;;;35.39;23.12;98007.75;4988256;28;20860;-81
2022/09/29 09:09:43;;;;;;;10.85;2.08;;;;;;;35.42;23.39;98000.94;4967424;28;20516;-79
2022/09/29 09:12:47;;;;;;;7.57;2.10;;;;;;;35.43;23.35;97992.50;5001652;28;20057;-79
2022/09/29 09:15:19;;;;;;;7.22;1.95;;;;;;;35.47;22.32;97985.38;4963488;28;20039;-79
2022/09/29 09:18:23;;;;;;;9.13;2.10;;;;;;;35.48;22.82;97984.25;4947577;28;20035;-80
2022/09/29 09:20:55;;;;;;;7.32;1.80;;;;;;;35.46;22.94;97986.47;4932756;28;20038;-77
2022/09/29 09:23:38;;;;;;;6.90;2.03;;;;;;;35.30;22.90;97996.00;4958951;28;20503;-76
2022/09/29 09:26:04;;;;;;;5.03;1.90;;;;;;;34.99;23.48;97999.16;4964450;28;20047;-79
2022/09/29 09:28:54;;;;;;;10.45;2.30;;;;;;;34.91;23.67;97997.13;4929931;28;20195;-78
2022/09/29 09:31:31;;;;;;;6.15;2.05;;;;;;;34.97;23.35;97999.47;4944925;28;20090;-78
2022/09/29 09:33:57;;;;;;;13.63;2.47;;;;;;;35.07;23.29;98000.41;4950891;29;20043;-80
2022/09/29 09:36:28;;;;;;;4.63;1.60;;;;;;;35.10;23.21;98000.63;4953212;28;20038;-80
2022/09/29 09:38:58;;;;;;;7.85;2.03;;;;;;;35.10;23.08;97992.47;4953493;29;20035;-81
2022/09/29 09:41:24;;;;;;;11.23;1.83;;;;;;;35.17;22.82;97992.13;4936757;29;20035;-78
2022/09/29 09:44:16;;;;;;;6.65;2.25;;;;;;;35.10;23.32;97997.91;4957431;28;20054;-81
2022/09/29 09:47:03;;;;;;;7.05;1.80;;;;;;;35.03;22.98;97985.81;4974127;28;20105;-79
2022/09/29 09:50:01;;;;;;;6.35;1.95;;;;;;;35.06;23.67;97991.47;4976277;28;20045;-77
2022/09/29 09:52:59;;;;;;;6.28;1.90;;;;;;;35.05;23.48;97991.78;4974124;28;20029;-78
2022/09/29 09:55:24;;;;;;;6.80;1.90;;;;;;;34.99;23.23;97988.31;5000588;28;20026;-77
2022/09/29 09:57:51;;;;;;;5.40;1.70;;;;;;;34.83;23.81;97984.25;4986241;28;20053;-77
2022/09/29 10:00:20;;;;;;;8.48;1.70;;;;;;;34.63;23.80;97980.69;5000316;28;20585;-78
2022/09/29 10:02:50;;;;;;;3.75;1.35;;;;;;;34.52;24.20;97977.34;4967386;28;20133;-79
2022/09/29 10:05:18;;;;;;;4.10;1.60;;;;;;;34.47;24.56;97974.69;4974922;28;20105;-77
2022/09/29 10:07:43;;;;;;;4.75;1.40;;;;;;;34.37;24.65;97977.56;5002952;28;20128;-78
2022/09/29 10:10:17;;;;;;;7.13;2.05;;;;;;;34.16;24.92;97968.84;5043449;28;20163;-78
2022/09/29 10:12:44;;;;;;;4.80;1.77;;;;;;;33.84;25.08;97970.31;5029964;28;20128;-78
2022/09/29 10:15:22;;;;;;;5.25;1.80;;;;;;;33.58;26.43;97973.28;5030022;28;20037;-76
2022/09/29 10:17:50;;;;;;;4.47;1.70;;;;;;;33.53;26.25;97968.72;5047188;28;20124;-80
2022/09/29 10:20:34;;;;;;;4.15;1.70;;;;;;;33.41;26.38;97970.22;5027562;28;20056;-77
2022/09/29 10:23:26;;;;;;;9.90;1.80;;;;;;;33.14;26.62;97961.47;5029455;28;20033;-78
2022/09/29 10:25:58;;;;;;;7.32;1.48;;;;;;;32.81;26.95;97957.69;5046491;28;20070;-77
2022/09/29 10:28:24;;;;;;;7.30;1.70;;;;;;;32.63;26.57;97951.88;5045715;28;20024;-77
2022/09/29 10:30:50;;;;;;;5.68;1.65;;;;;;;32.48;26.45;97957.34;5026332;28;20665;-77
2022/09/29 10:33:19;;;;;;;2.85;1.38;;;;;;;32.39;27.30;97943.63;5046305;28;20059;-77
2022/09/29 10:35:45;;;;;;;7.15;1.67;;;;;;;32.18;27.37;97940.25;5045943;28;20436;-79
2022/09/29 10:38:25;;;;;;;8.38;1.70;;;;;;;32.09;27.68;97942.69;5026273;28;20503;-77
2022/09/29 10:41:05;;;;;;;5.85;1.80;;;;;;;32.16;27.97;97934.28;5029833;28;20132;-80
2022/09/29 10:43:33;;;;;;;1375.28;546.25;;;;;;;32.20;30.93;97938.06;5051479;28;20064;-80
2022/09/29 10:45:59;;;;;;;34.35;12.35;;;;;;;32.25;28.36;97929.94;5062461;28;20454;-78
2022/09/29 10:48:25;;;;;;;67.55;31.77;;;;;;;32.38;28.25;97928.50;5042355;28;20060;-76
2022/09/29 10:50:51;;;;;;;82.57;33.03;;;;;;;32.42;27.97;97934.97;5045425;28;20036;-73
2022/09/29 10:53:39;;;;;;;46.10;20.10;;;;;;;32.31;28.54;97929.88;5059335;28;20419;-78
2022/09/29 10:56:15;;;;;;;43.58;20.33;;;;;;;32.32;28.64;97931.50;5046417;28;20057;-76
2022/09/29 10:58:41;;;;;;;28.73;13.32;;;;;;;32.28;28.22;97923.16;5045014;28;20040;-79
2022/09/29 11:01:11;;;;;;;27.08;11.20;;;;;;;32.29;28.18;97922.06;5035091;28;20127;-80
2022/09/29 11:04:03;;;;;;;25.27;10.02;;;;;;;32.25;28.44;97929.94;5040394;28;20500;-80
2022/09/29 11:06:35;;;;;;;23.45;7.35;;;;;;;32.18;27.85;97924.03;5046869;28;20029;-75
2022/09/29 11:09:10;;;;;;;13.13;5.25;;;;;;;32.16;27.81;97925.41;5026837;28;20500;-78
2022/09/29 11:11:36;;;;;;;17.23;5.10;;;;;;;32.13;28.17;97926.75;5062369;28;20036;-72
2022/09/29 11:14:02;;;;;;;12.40;3.90;;;;;;;32.09;27.87;97923.00;5045732;28;20037;-81
2022/09/29 11:16:39;;;;;;;14.52;4.05;;;;;;;32.02;28.20;97923.25;5028464;28;20424;-76
2022/09/29 11:19:04;;;;;;;8.88;3.78;;;;;;;31.97;28.36;97922.47;5029764;28;20464;-76
2022/09/29 11:21:42;;;;;;;7.43;2.13;;;;;;;31.93;27.72;97923.03;5062129;28;20120;-78
2022/09/29 11:24:31;;;;;;;12.82;2.85;;;;;;;31.64;28.25;97914.75;5063184;28;20024;-77
2022/09/29 11:27:00;;;;;;;9.40;3.03;;;;;;;31.55;28.32;97919.94;5060375;28;20029;-76
2022/09/29 11:29:42;;;;;;;5.47;2.03;;;;;;;31.19;28.11;97916.47;5060867;28;20029;-73
2022/09/29 11:32:29;;;;;;;5.03;1.90;;;;;;;30.99;28.75;97911.91;5046150;28;20029;-77
2022/09/29 11:35:17;;;;;;;5.70;1.70;;;;;;;30.70;28.49;97917.81;5063341;28;20032;-76
2022/09/29 11:38:11;;;;;;;5.95;1.92;;;;;;;30.75;28.85;97906.22;5058618;28;20083;-74
2022/09/29 11:41:18;;;;;;;5.60;1.95;;;;;;;30.79;29.20;97905.41;5059376;28;20036;-78
2022/09/29 11:43:45;;;;;;;8.02;1.73;;;;;;;30.65;28.06;97909.72;5060196;28;20036;-75
2022/09/29 11:46:25;;;;;;;4.18;1.85;;;;;;;30.47;29.31;97911.84;5040966;28;20122;-78
2022/09/29 11:48:53;;;;;;;5.05;1.70;;;;;;;30.24;28.09;97918.50;5046019;28;20037;-76